sensor_id;sensor_type;location;lat;lon;timestamp;pressure;altitude;pressure_sealevel;temperature;humidity
54194;BME280;40102;50.906;6.972;2023-07-31T00:00:54;100593.53;;;18.70;78.63
54194;BME280;40102;50.906;6.972;2023-07-31T00:03:19;100595.66;;;18.67;78.79
54194;BME280;40102;50.906;6.972;2023-07-31T00:05:45;100593.69;;;18.69;78.83
54194;BME280;40102;50.906;6.972;2023-07-31T00:08:10;100606.66;;;18.75;78.67
54194;BME280;40102;50.906;6.972;2023-07-31T00:10:35;100593.13;;;18.75;78.49
54194;BME280;40102;50.906;6.972;2023-07-31T00:13:01;100601.09;;;18.76;78.52
54194;BME280;40102;50.906;6.972;2023-07-31T00:15:26;100603.94;;;18.75;78.82
54194;BME280;40102;50.906;6.972;2023-07-31T00:17:51;100593.94;;;18.66;79.18
54194;BME280;40102;50.906;6.972;2023-07-31T00:20:17;100602.81;;;18.68;79.17
54194;BME280;40102;50.906;6.972;2023-07-31T00:22:42;100595.38;;;18.70;79.46
54194;BME280;40102;50.906;6.972;2023-07-31T00:25:08;100592.25;;;18.65;79.62
54194;BME280;40102;50.906;6.972;2023-07-31T00:27:33;100591.69;;;18.71;79.65
54194;BME280;40102;50.906;6.972;2023-07-31T00:29:58;100601.53;;;18.72;79.43
54194;BME280;40102;50.906;6.972;2023-07-31T00:32:24;100608.50;;;18.74;79.19
54194;BME280;40102;50.906;6.972;2023-07-31T00:34:49;100599.66;;;18.72;79.17
54194;BME280;40102;50.906;6.972;2023-07-31T00:37:15;100601.53;;;18.72;78.85
54194;BME280;40102;50.906;6.972;2023-07-31T00:39:41;100585.69;;;18.67;79.05
54194;BME280;40102;50.906;6.972;2023-07-31T00:42:06;100611.22;;;18.74;78.44
54194;BME280;40102;50.906;6.972;2023-07-31T00:44:32;100605.38;;;18.69;78.05
54194;BME280;40102;50.906;6.972;2023-07-31T00:46:58;100598.09;;;18.70;77.94
54194;BME280;40102;50.906;6.972;2023-07-31T00:49:25;100588.25;;;18.69;77.99
54194;BME280;40102;50.906;6.972;2023-07-31T00:51:50;100595.09;;;18.73;77.27
54194;BME280;40102;50.906;6.972;2023-07-31T00:54:16;100583.97;;;18.66;77.99
54194;BME280;40102;50.906;6.972;2023-07-31T00:56:45;100577.28;;;18.70;77.71
54194;BME280;40102;50.906;6.972;2023-07-31T00:59:10;100587.97;;;18.72;77.96
54194;BME280;40102;50.906;6.972;2023-07-31T01:01:36;100584.97;;;18.65;78.26
54194;BME280;40102;50.906;6.972;2023-07-31T01:04:01;100580.84;;;18.61;77.95
54194;BME280;40102;50.906;6.972;2023-07-31T01:06:48;100578.50;;;18.57;78.07
54194;BME280;40102;50.906;6.972;2023-07-31T01:12:07;100572.25;;;18.56;78.07
54194;BME280;40102;50.906;6.972;2023-07-31T01:14:34;100563.44;;;18.64;77.58
54194;BME280;40102;50.906;6.972;2023-07-31T01:17:00;100569.44;;;18.67;77.23
54194;BME280;40102;50.906;6.972;2023-07-31T01:19:26;100564.88;;;18.68;76.81
54194;BME280;40102;50.906;6.972;2023-07-31T01:25:22;100569.72;;;18.64;76.75
54194;BME280;40102;50.906;6.972;2023-07-31T01:28:00;100563.44;;;18.64;76.56
54194;BME280;40102;50.906;6.972;2023-07-31T01:30:32;100579.84;;;18.62;76.73
54194;BME280;40102;50.906;6.972;2023-07-31T01:33:02;100563.84;;;18.59;76.76
54194;BME280;40102;50.906;6.972;2023-07-31T01:35:33;100566.16;;;18.64;76.55
54194;BME280;40102;50.906;6.972;2023-07-31T01:37:58;100570.09;;;18.60;76.91
54194;BME280;40102;50.906;6.972;2023-07-31T01:40:24;100565.44;;;18.62;76.90
54194;BME280;40102;50.906;6.972;2023-07-31T01:42:49;100572.16;;;18.67;77.00
54194;BME280;40102;50.906;6.972;2023-07-31T01:45:15;100558.31;;;18.61;76.97
54194;BME280;40102;50.906;6.972;2023-07-31T01:47:40;100568.38;;;18.59;77.18
54194;BME280;40102;50.906;6.972;2023-07-31T01:50:06;100561.97;;;18.60;76.89
54194;BME280;40102;50.906;6.972;2023-07-31T01:52:32;100571.97;;;18.59;77.01
54194;BME280;40102;50.906;6.972;2023-07-31T01:54:57;100570.97;;;18.60;76.94
54194;BME280;40102;50.906;6.972;2023-07-31T01:57:23;100564.97;;;18.57;76.96
54194;BME280;40102;50.906;6.972;2023-07-31T01:59:48;100568.53;;;18.57;77.37
54194;BME280;40102;50.906;6.972;2023-07-31T02:02:14;100558.56;;;18.58;77.13
54194;BME280;40102;50.906;6.972;2023-07-31T02:04:39;100557.56;;;18.59;77.10
54194;BME280;40102;50.906;6.972;2023-07-31T02:07:06;100556.56;;;18.60;77.34
54194;BME280;40102;50.906;6.972;2023-07-31T02:09:31;100550.63;;;18.66;76.95
54194;BME280;40102;50.906;6.972;2023-07-31T02:11:57;100547.03;;;18.65;76.97
54194;BME280;40102;50.906;6.972;2023-07-31T02:14:22;100552.47;;;18.65;76.99
54194;BME280;40102;50.906;6.972;2023-07-31T02:16:48;100556.03;;;18.66;76.96
54194;BME280;40102;50.906;6.972;2023-07-31T02:19:14;100551.63;;;18.65;76.90
54194;BME280;40102;50.906;6.972;2023-07-31T02:21:39;100540.91;;;18.63;76.79
54194;BME280;40102;50.906;6.972;2023-07-31T02:24:05;100538.06;;;18.65;76.61
54194;BME280;40102;50.906;6.972;2023-07-31T02:26:31;100538.63;;;18.68;76.42
54194;BME280;40102;50.906;6.972;2023-07-31T02:28:57;100522.53;;;18.67;76.83
54194;BME280;40102;50.906;6.972;2023-07-31T02:31:23;100524.25;;;18.68;76.27
54194;BME280;40102;50.906;6.972;2023-07-31T02:33:48;100522.38;;;18.68;76.69
54194;BME280;40102;50.906;6.972;2023-07-31T02:36:14;100525.25;;;18.67;76.04
54194;BME280;40102;50.906;6.972;2023-07-31T02:38:39;100527.22;;;18.65;76.40
54194;BME280;40102;50.906;6.972;2023-07-31T02:41:05;100523.94;;;18.61;75.72
54194;BME280;40102;50.906;6.972;2023-07-31T02:43:30;100522.81;;;18.64;75.79
54194;BME280;40102;50.906;6.972;2023-07-31T02:45:56;100525.53;;;18.64;75.76
54194;BME280;40102;50.906;6.972;2023-07-31T02:48:22;100526.22;;;18.66;75.88
54194;BME280;40102;50.906;6.972;2023-07-31T02:50:47;100511.13;;;18.63;75.53
54194;BME280;40102;50.906;6.972;2023-07-31T02:53:13;100521.66;;;18.66;75.63
54194;BME280;40102;50.906;6.972;2023-07-31T02:55:40;100508.84;;;18.68;75.55
54194;BME280;40102;50.906;6.972;2023-07-31T02:58:05;100512.41;;;18.69;75.51
54194;BME280;40102;50.906;6.972;2023-07-31T03:00:31;100505.28;;;18.68;75.42
54194;BME280;40102;50.906;6.972;2023-07-31T03:02:56;100509.41;;;18.72;75.55
54194;BME280;40102;50.906;6.972;2023-07-31T03:05:22;100503.13;;;18.71;75.03
54194;BME280;40102;50.906;6.972;2023-07-31T03:07:48;100501.56;;;18.69;75.30
54194;BME280;40102;50.906;6.972;2023-07-31T03:10:13;100505.84;;;18.71;75.52
54194;BME280;40102;50.906;6.972;2023-07-31T03:12:40;100502.41;;;18.69;75.58
54194;BME280;40102;50.906;6.972;2023-07-31T03:15:06;100506.84;;;18.70;75.93
54194;BME280;40102;50.906;6.972;2023-07-31T03:17:32;100508.13;;;18.66;75.83
54194;BME280;40102;50.906;6.972;2023-07-31T03:19:57;100495.44;;;18.67;75.80
54194;BME280;40102;50.906;6.972;2023-07-31T03:22:23;100498.16;;;18.67;75.49
54194;BME280;40102;50.906;6.972;2023-07-31T03:24:49;100497.84;;;18.70;75.25
54194;BME280;40102;50.906;6.972;2023-07-31T03:27:14;100482.47;;;18.70;75.56
54194;BME280;40102;50.906;6.972;2023-07-31T03:29:40;100490.59;;;18.70;75.60
54194;BME280;40102;50.906;6.972;2023-07-31T03:32:06;100486.44;;;18.76;75.58
54194;BME280;40102;50.906;6.972;2023-07-31T03:34:31;100487.31;;;18.76;75.44
54194;BME280;40102;50.906;6.972;2023-07-31T03:36:58;100476.47;;;18.67;75.42
54194;BME280;40102;50.906;6.972;2023-07-31T03:39:24;100483.31;;;18.71;75.41
54194;BME280;40102;50.906;6.972;2023-07-31T03:41:49;100477.19;;;18.69;75.72
54194;BME280;40102;50.906;6.972;2023-07-31T03:44:15;100476.47;;;18.67;75.85
54194;BME280;40102;50.906;6.972;2023-07-31T03:46:41;100488.88;;;18.69;76.05
54194;BME280;40102;50.906;6.972;2023-07-31T03:49:06;100476.75;;;18.64;76.48
54194;BME280;40102;50.906;6.972;2023-07-31T03:51:32;100483.19;;;18.63;76.99
54194;BME280;40102;50.906;6.972;2023-07-31T03:53:58;100469.03;;;18.59;77.16
54194;BME280;40102;50.906;6.972;2023-07-31T03:56:23;100472.34;;;18.63;76.57
54194;BME280;40102;50.906;6.972;2023-07-31T03:58:49;100473.75;;;18.67;76.99
54194;BME280;40102;50.906;6.972;2023-07-31T04:01:14;100471.06;;;18.67;76.72
54194;BME280;40102;50.906;6.972;2023-07-31T04:03:40;100466.34;;;18.69;77.12
54194;BME280;40102;50.906;6.972;2023-07-31T04:06:05;100458.94;;;18.71;77.07
54194;BME280;40102;50.906;6.972;2023-07-31T04:08:32;100450.66;;;18.72;76.94
54194;BME280;40102;50.906;6.972;2023-07-31T04:10:58;100460.94;;;18.79;76.75
54194;BME280;40102;50.906;6.972;2023-07-31T04:13:23;100456.38;;;18.79;76.73
54194;BME280;40102;50.906;6.972;2023-07-31T04:15:49;100459.50;;;18.84;76.57
54194;BME280;40102;50.906;6.972;2023-07-31T04:18:16;100460.19;;;18.86;76.32
54194;BME280;40102;50.906;6.972;2023-07-31T04:20:41;100459.91;;;18.89;76.55
54194;BME280;40102;50.906;6.972;2023-07-31T04:23:07;100452.63;;;18.90;76.35
54194;BME280;40102;50.906;6.972;2023-07-31T04:25:33;100457.34;;;18.88;76.31
54194;BME280;40102;50.906;6.972;2023-07-31T04:28:00;100452.63;;;18.90;76.32
54194;BME280;40102;50.906;6.972;2023-07-31T04:30:26;100451.94;;;18.88;76.16
54194;BME280;40102;50.906;6.972;2023-07-31T04:32:51;100449.66;;;18.83;75.57
54194;BME280;40102;50.906;6.972;2023-07-31T04:35:17;100442.53;;;18.82;75.57
54194;BME280;40102;50.906;6.972;2023-07-31T04:37:43;100443.94;;;18.86;75.44
54194;BME280;40102;50.906;6.972;2023-07-31T04:40:11;100446.94;;;18.83;75.76
54194;BME280;40102;50.906;6.972;2023-07-31T04:42:37;100451.66;;;18.81;75.56
54194;BME280;40102;50.906;6.972;2023-07-31T04:45:03;100443.09;;;18.76;75.13
54194;BME280;40102;50.906;6.972;2023-07-31T04:47:28;100432.00;;;18.69;75.28
54194;BME280;40102;50.906;6.972;2023-07-31T04:49:54;100449.38;;;18.76;75.55
54194;BME280;40102;50.906;6.972;2023-07-31T04:52:20;100439.69;;;18.74;75.44
54194;BME280;40102;50.906;6.972;2023-07-31T04:54:46;100441.53;;;18.73;75.49
54194;BME280;40102;50.906;6.972;2023-07-31T04:57:12;100442.41;;;18.74;75.46
54194;BME280;40102;50.906;6.972;2023-07-31T04:59:37;100442.97;;;18.77;74.97
54194;BME280;40102;50.906;6.972;2023-07-31T05:02:03;100439.97;;;18.81;75.03
54194;BME280;40102;50.906;6.972;2023-07-31T05:04:29;100428.84;;;18.74;74.64
54194;BME280;40102;50.906;6.972;2023-07-31T05:06:54;100421.16;;;18.69;75.18
54194;BME280;40102;50.906;6.972;2023-07-31T05:09:20;100425.44;;;18.72;74.88
54194;BME280;40102;50.906;6.972;2023-07-31T05:11:45;100414.31;;;18.75;74.91
54194;BME280;40102;50.906;6.972;2023-07-31T05:14:11;100415.88;;;18.77;75.19
54194;BME280;40102;50.906;6.972;2023-07-31T05:16:36;100409.59;;;18.77;74.67
54194;BME280;40102;50.906;6.972;2023-07-31T05:19:02;100416.44;;;18.81;74.65
54194;BME280;40102;50.906;6.972;2023-07-31T05:21:28;100414.16;;;18.76;75.05
54194;BME280;40102;50.906;6.972;2023-07-31T05:23:53;100408.47;;;18.70;74.84
54194;BME280;40102;50.906;6.972;2023-07-31T05:26:20;100406.47;;;18.72;74.97
54194;BME280;40102;50.906;6.972;2023-07-31T05:28:47;100410.88;;;18.73;75.02
54194;BME280;40102;50.906;6.972;2023-07-31T05:31:12;100402.47;;;18.76;74.72
54194;BME280;40102;50.906;6.972;2023-07-31T05:33:39;100402.59;;;18.74;75.19
54194;BME280;40102;50.906;6.972;2023-07-31T05:36:05;100397.75;;;18.78;74.75
54194;BME280;40102;50.906;6.972;2023-07-31T05:42:03;100374.94;;;18.81;75.00
54194;BME280;40102;50.906;6.972;2023-07-31T05:44:31;100369.66;;;18.79;74.90
54194;BME280;40102;50.906;6.972;2023-07-31T05:47:08;100369.66;;;18.79;75.36
54194;BME280;40102;50.906;6.972;2023-07-31T05:49:33;100368.53;;;18.72;75.36
54194;BME280;40102;50.906;6.972;2023-07-31T05:51:59;100358.69;;;18.71;75.34
54194;BME280;40102;50.906;6.972;2023-07-31T05:54:25;100362.81;;;18.75;75.16
54194;BME280;40102;50.906;6.972;2023-07-31T05:56:50;100350.88;;;18.68;75.72
54194;BME280;40102;50.906;6.972;2023-07-31T05:59:16;100342.31;;;18.63;76.03
54194;BME280;40102;50.906;6.972;2023-07-31T06:01:42;100354.88;;;18.64;75.99
54194;BME280;40102;50.906;6.972;2023-07-31T06:04:08;100355.72;;;18.64;75.94
54194;BME280;40102;50.906;6.972;2023-07-31T06:06:34;100362.00;;;18.65;76.08
54194;BME280;40102;50.906;6.972;2023-07-31T06:08:59;100358.56;;;18.63;76.85
54194;BME280;40102;50.906;6.972;2023-07-31T06:11:25;100366.56;;;18.64;77.34
54194;BME280;40102;50.906;6.972;2023-07-31T06:13:50;100367.25;;;18.66;77.50
54194;BME280;40102;50.906;6.972;2023-07-31T06:16:16;100364.69;;;18.65;77.78
54194;BME280;40102;50.906;6.972;2023-07-31T06:18:42;100375.81;;;18.62;78.39
54194;BME280;40102;50.906;6.972;2023-07-31T06:21:08;100372.53;;;18.58;78.83
54194;BME280;40102;50.906;6.972;2023-07-31T06:23:34;100372.81;;;18.55;79.73
54194;BME280;40102;50.906;6.972;2023-07-31T06:26:00;100365.56;;;18.46;79.95
54194;BME280;40102;50.906;6.972;2023-07-31T06:28:30;100369.81;;;18.49;79.92
54194;BME280;40102;50.906;6.972;2023-07-31T06:30:59;100369.69;;;18.50;80.08
54194;BME280;40102;50.906;6.972;2023-07-31T06:33:25;100371.97;;;18.55;80.20
54194;BME280;40102;50.906;6.972;2023-07-31T06:35:51;100362.97;;;18.54;79.93
54194;BME280;40102;50.906;6.972;2023-07-31T06:38:21;100367.09;;;18.58;80.30
54194;BME280;40102;50.906;6.972;2023-07-31T06:40:47;100361.44;;;18.61;80.47
54194;BME280;40102;50.906;6.972;2023-07-31T06:43:13;100360.00;;;18.67;79.96
54194;BME280;40102;50.906;6.972;2023-07-31T06:45:39;100359.13;;;18.66;80.85
54194;BME280;40102;50.906;6.972;2023-07-31T06:48:04;100358.13;;;18.67;80.85
54194;BME280;40102;50.906;6.972;2023-07-31T06:50:31;100356.13;;;18.69;80.57
54194;BME280;40102;50.906;6.972;2023-07-31T06:52:56;100349.88;;;18.69;81.29
54194;BME280;40102;50.906;6.972;2023-07-31T06:55:23;100349.56;;;18.72;81.28
54194;BME280;40102;50.906;6.972;2023-07-31T06:57:49;100350.44;;;18.72;81.42
54194;BME280;40102;50.906;6.972;2023-07-31T07:00:16;100347.56;;;18.74;81.54
54194;BME280;40102;50.906;6.972;2023-07-31T07:02:42;100354.00;;;18.73;82.28
54194;BME280;40102;50.906;6.972;2023-07-31T07:05:08;100341.88;;;18.67;82.71
54194;BME280;40102;50.906;6.972;2023-07-31T07:07:34;100350.28;;;18.74;82.66
54194;BME280;40102;50.906;6.972;2023-07-31T07:10:00;100348.56;;;18.73;83.34
54194;BME280;40102;50.906;6.972;2023-07-31T07:12:29;100339.31;;;18.66;83.78
54194;BME280;40102;50.906;6.972;2023-07-31T07:14:54;100341.19;;;18.65;84.58
54194;BME280;40102;50.906;6.972;2023-07-31T07:17:20;100333.19;;;18.64;84.83
54194;BME280;40102;50.906;6.972;2023-07-31T07:19:48;100335.06;;;18.63;84.29
54194;BME280;40102;50.906;6.972;2023-07-31T07:22:13;100336.19;;;18.61;84.46
54194;BME280;40102;50.906;6.972;2023-07-31T07:24:39;100329.91;;;18.60;84.46
54194;BME280;40102;50.906;6.972;2023-07-31T07:27:04;100334.34;;;18.61;83.58
54194;BME280;40102;50.906;6.972;2023-07-31T07:29:30;100336.06;;;18.62;83.49
54194;BME280;40102;50.906;6.972;2023-07-31T07:31:55;100339.03;;;18.59;83.47
54194;BME280;40102;50.906;6.972;2023-07-31T07:34:26;100336.19;;;18.61;83.19
54194;BME280;40102;50.906;6.972;2023-07-31T07:36:52;100344.19;;;18.62;82.81
54194;BME280;40102;50.906;6.972;2023-07-31T07:39:17;100343.88;;;18.65;83.15
54194;BME280;40102;50.906;6.972;2023-07-31T07:41:43;100345.03;;;18.63;83.42
54194;BME280;40102;50.906;6.972;2023-07-31T07:44:08;100352.44;;;18.70;83.56
54194;BME280;40102;50.906;6.972;2023-07-31T07:46:34;100343.88;;;18.65;83.42
54194;BME280;40102;50.906;6.972;2023-07-31T07:49:00;100341.31;;;18.64;84.77
54194;BME280;40102;50.906;6.972;2023-07-31T07:51:25;100324.47;;;18.60;85.50
54194;BME280;40102;50.906;6.972;2023-07-31T07:53:51;100345.19;;;18.61;85.48
54194;BME280;40102;50.906;6.972;2023-07-31T07:56:17;100339.03;;;18.59;85.33
54194;BME280;40102;50.906;6.972;2023-07-31T07:58:42;100353.41;;;18.60;85.11
54194;BME280;40102;50.906;6.972;2023-07-31T08:01:08;100343.59;;;18.59;85.46
54194;BME280;40102;50.906;6.972;2023-07-31T08:03:34;100353.41;;;18.60;85.43
54194;BME280;40102;50.906;6.972;2023-07-31T08:06:00;100356.97;;;18.60;85.50
54194;BME280;40102;50.906;6.972;2023-07-31T08:08:27;100355.16;;;18.61;85.15
54194;BME280;40102;50.906;6.972;2023-07-31T08:10:54;100349.59;;;18.62;84.47
54194;BME280;40102;50.906;6.972;2023-07-31T08:13:20;100346.88;;;18.62;84.98
54194;BME280;40102;50.906;6.972;2023-07-31T08:15:46;100351.16;;;18.65;84.25
54194;BME280;40102;50.906;6.972;2023-07-31T08:18:11;100341.63;;;18.61;84.20
54194;BME280;40102;50.906;6.972;2023-07-31T08:20:37;100339.88;;;18.60;84.93
54194;BME280;40102;50.906;6.972;2023-07-31T08:23:03;100331.63;;;18.61;84.61
54194;BME280;40102;50.906;6.972;2023-07-31T08:25:29;100327.19;;;18.60;84.70
54194;BME280;40102;50.906;6.972;2023-07-31T08:27:55;100323.91;;;18.57;85.51
54194;BME280;40102;50.906;6.972;2023-07-31T08:30:21;100313.97;;;18.48;86.49
54194;BME280;40102;50.906;6.972;2023-07-31T08:32:47;100317.81;;;18.45;87.08
54194;BME280;40102;50.906;6.972;2023-07-31T08:35:13;100310.53;;;18.45;87.32
54194;BME280;40102;50.906;6.972;2023-07-31T08:37:38;100304.56;;;18.42;87.44
54194;BME280;40102;50.906;6.972;2023-07-31T08:40:05;100301.41;;;18.47;87.96
54194;BME280;40102;50.906;6.972;2023-07-31T08:42:31;100304.84;;;18.49;87.76
54194;BME280;40102;50.906;6.972;2023-07-31T08:44:59;100291.44;;;18.47;87.60
54194;BME280;40102;50.906;6.972;2023-07-31T08:47:26;100296.00;;;18.47;87.53
54194;BME280;40102;50.906;6.972;2023-07-31T08:49:53;100292.56;;;18.54;87.26
54194;BME280;40102;50.906;6.972;2023-07-31T08:52:20;100300.53;;;18.56;87.26
54194;BME280;40102;50.906;6.972;2023-07-31T08:54:45;100302.81;;;18.60;86.89
54194;BME280;40102;50.906;6.972;2023-07-31T08:57:12;100296.53;;;18.60;86.62
54194;BME280;40102;50.906;6.972;2023-07-31T08:59:38;100295.56;;;18.61;87.26
54194;BME280;40102;50.906;6.972;2023-07-31T09:02:08;100303.69;;;18.61;87.36
54194;BME280;40102;50.906;6.972;2023-07-31T09:04:35;100309.38;;;18.58;87.92
54194;BME280;40102;50.906;6.972;2023-07-31T09:07:02;100307.09;;;18.53;89.03
54194;BME280;40102;50.906;6.972;2023-07-31T09:09:32;100320.50;;;18.55;89.39
54194;BME280;40102;50.906;6.972;2023-07-31T09:11:58;100311.38;;;18.56;89.37
54194;BME280;40102;50.906;6.972;2023-07-31T09:14:27;100319.78;;;18.53;89.34
54194;BME280;40102;50.906;6.972;2023-07-31T09:16:57;100325.22;;;18.43;86.18
54194;BME280;40102;50.906;6.972;2023-07-31T09:19:35;100318.53;;;18.37;86.34
54194;BME280;40102;50.906;6.972;2023-07-31T09:22:05;100328.81;;;18.34;87.51
54194;BME280;40102;50.906;6.972;2023-07-31T09:24:33;100314.25;;;18.35;88.39
54194;BME280;40102;50.906;6.972;2023-07-31T09:27:00;100309.28;;;18.30;89.34
54194;BME280;40102;50.906;6.972;2023-07-31T09:29:29;100305.72;;;18.30;89.89
54194;BME280;40102;50.906;6.972;2023-07-31T09:31:55;100302.28;;;18.37;90.43
54194;BME280;40102;50.906;6.972;2023-07-31T09:34:29;100300.84;;;18.43;89.78
54194;BME280;40102;50.906;6.972;2023-07-31T09:36:58;100284.59;;;18.43;89.10
54194;BME280;40102;50.906;6.972;2023-07-31T09:39:26;100283.31;;;18.47;89.09
54194;BME280;40102;50.906;6.972;2023-07-31T09:41:55;100287.28;;;18.53;88.71
54194;BME280;40102;50.906;6.972;2023-07-31T09:44:21;100290.72;;;18.55;89.21
54194;BME280;40102;50.906;6.972;2023-07-31T09:47:02;100279.88;;;18.55;88.43
54194;BME280;40102;50.906;6.972;2023-07-31T09:49:28;100271.91;;;18.53;88.17
54194;BME280;40102;50.906;6.972;2023-07-31T09:51:54;100272.75;;;18.54;88.98
54194;BME280;40102;50.906;6.972;2023-07-31T09:54:20;100273.59;;;18.54;88.53
54194;BME280;40102;50.906;6.972;2023-07-31T09:56:47;100272.91;;;18.62;88.34
54194;BME280;40102;50.906;6.972;2023-07-31T09:59:17;100264.63;;;18.63;88.21
54194;BME280;40102;50.906;6.972;2023-07-31T10:01:43;100262.06;;;18.62;88.19
54194;BME280;40102;50.906;6.972;2023-07-31T10:04:11;100267.34;;;18.63;88.04
54194;BME280;40102;50.906;6.972;2023-07-31T10:06:37;100258.22;;;18.64;87.57
54194;BME280;40102;50.906;6.972;2023-07-31T10:09:09;100250.22;;;18.63;88.13
54194;BME280;40102;50.906;6.972;2023-07-31T10:11:59;100245.38;;;18.66;87.58
54194;BME280;40102;50.906;6.972;2023-07-31T10:14:26;100250.50;;;18.69;87.38
54194;BME280;40102;50.906;6.972;2023-07-31T10:16:57;100246.34;;;18.75;87.10
54194;BME280;40102;50.906;6.972;2023-07-31T10:19:22;100246.63;;;18.72;86.96
54194;BME280;40102;50.906;6.972;2023-07-31T10:21:48;100250.31;;;18.81;86.56
54194;BME280;40102;50.906;6.972;2023-07-31T10:24:14;100248.44;;;18.81;85.44
54194;BME280;40102;50.906;6.972;2023-07-31T10:26:41;100246.13;;;18.86;84.20
54194;BME280;40102;50.906;6.972;2023-07-31T10:29:11;100255.81;;;18.89;84.22
54194;BME280;40102;50.906;6.972;2023-07-31T10:31:37;100239.28;;;18.92;83.04
54194;BME280;40102;50.906;6.972;2023-07-31T10:34:03;100244.25;;;18.96;82.00
54194;BME280;40102;50.906;6.972;2023-07-31T10:36:28;100240.94;;;19.02;79.39
54194;BME280;40102;50.906;6.972;2023-07-31T10:38:56;100244.19;;;19.06;79.31
54194;BME280;40102;50.906;6.972;2023-07-31T10:41:31;100242.03;;;19.09;77.83
54194;BME280;40102;50.906;6.972;2023-07-31T10:44:00;100245.44;;;19.12;77.69
54194;BME280;40102;50.906;6.972;2023-07-31T10:46:28;100250.09;;;19.19;76.00
54194;BME280;40102;50.906;6.972;2023-07-31T10:49:01;100245.69;;;19.18;76.75
54194;BME280;40102;50.906;6.972;2023-07-31T10:51:34;100244.69;;;19.19;76.64
54194;BME280;40102;50.906;6.972;2023-07-31T10:54:13;100248.25;;;19.20;77.31
54194;BME280;40102;50.906;6.972;2023-07-31T10:56:40;100249.78;;;19.22;76.52
54194;BME280;40102;50.906;6.972;2023-07-31T10:59:05;100244.94;;;19.26;76.39
54194;BME280;40102;50.906;6.972;2023-07-31T11:01:50;100245.78;;;19.26;76.08
54194;BME280;40102;50.906;6.972;2023-07-31T11:04:22;100251.03;;;19.28;76.22
54194;BME280;40102;50.906;6.972;2023-07-31T11:07:06;100250.75;;;19.31;76.26
54194;BME280;40102;50.906;6.972;2023-07-31T11:09:35;100254.31;;;19.31;76.33
54194;BME280;40102;50.906;6.972;2023-07-31T11:12:01;100264.69;;;19.36;76.35
54194;BME280;40102;50.906;6.972;2023-07-31T11:14:26;100282.66;;;19.37;76.61
54194;BME280;40102;50.906;6.972;2023-07-31T11:16:52;100261.44;;;19.32;77.20
54194;BME280;40102;50.906;6.972;2023-07-31T11:19:24;100264.31;;;19.31;78.14
54194;BME280;40102;50.906;6.972;2023-07-31T11:21:51;100256.72;;;19.34;78.20
54194;BME280;40102;50.906;6.972;2023-07-31T11:24:17;100251.19;;;19.26;78.86
54194;BME280;40102;50.906;6.972;2023-07-31T11:26:52;100255.06;;;19.24;80.06
54194;BME280;40102;50.906;6.972;2023-07-31T11:29:18;100251.50;;;19.23;79.46
54194;BME280;40102;50.906;6.972;2023-07-31T11:31:46;100243.53;;;19.22;79.63
54194;BME280;40102;50.906;6.972;2023-07-31T11:34:12;100240.66;;;19.23;80.06
54194;BME280;40102;50.906;6.972;2023-07-31T11:36:38;100236.63;;;19.27;78.39
54194;BME280;40102;50.906;6.972;2023-07-31T11:39:10;100237.03;;;19.32;78.92
54194;BME280;40102;50.906;6.972;2023-07-31T11:41:36;100234.94;;;19.44;77.04
54194;BME280;40102;50.906;6.972;2023-07-31T11:44:01;100229.69;;;19.42;76.77
54194;BME280;40102;50.906;6.972;2023-07-31T11:46:30;100235.59;;;19.56;76.28
54194;BME280;40102;50.906;6.972;2023-07-31T11:48:59;100217.16;;;19.59;75.97
54194;BME280;40102;50.906;6.972;2023-07-31T11:51:25;100214.44;;;19.59;75.76
54194;BME280;40102;50.906;6.972;2023-07-31T11:53:53;100210.03;;;19.58;75.13
54194;BME280;40102;50.906;6.972;2023-07-31T11:56:21;100231.56;;;19.60;75.26
54194;BME280;40102;50.906;6.972;2023-07-31T11:58:55;100225.84;;;19.63;74.80
54194;BME280;40102;50.906;6.972;2023-07-31T12:01:22;100224.13;;;19.62;75.50
54194;BME280;40102;50.906;6.972;2023-07-31T12:03:49;100209.19;;;19.58;75.57
54194;BME280;40102;50.906;6.972;2023-07-31T12:06:15;100206.16;;;19.61;76.23
54194;BME280;40102;50.906;6.972;2023-07-31T12:08:41;100201.59;;;19.61;76.65
54194;BME280;40102;50.906;6.972;2023-07-31T12:11:08;100210.03;;;19.58;76.57
54194;BME280;40102;50.906;6.972;2023-07-31T12:13:35;100203.06;;;19.56;76.96
54194;BME280;40102;50.906;6.972;2023-07-31T12:16:02;100208.16;;;19.59;76.67
54194;BME280;40102;50.906;6.972;2023-07-31T12:18:30;100208.47;;;19.56;77.07
54194;BME280;40102;50.906;6.972;2023-07-31T12:20:56;100208.72;;;19.62;76.93
54194;BME280;40102;50.906;6.972;2023-07-31T12:23:26;100209.56;;;19.63;76.79
54194;BME280;40102;50.906;6.972;2023-07-31T12:28:29;100216.06;;;19.70;76.57
54194;BME280;40102;50.906;6.972;2023-07-31T12:30:58;100222.34;;;19.70;76.59
54194;BME280;40102;50.906;6.972;2023-07-31T12:33:30;100204.75;;;19.75;76.51
54194;BME280;40102;50.906;6.972;2023-07-31T12:36:02;100201.03;;;19.76;75.92
54194;BME280;40102;50.906;6.972;2023-07-31T12:38:27;100211.88;;;19.76;76.38
54194;BME280;40102;50.906;6.972;2023-07-31T12:40:53;100195.22;;;19.70;76.51
54194;BME280;40102;50.906;6.972;2023-07-31T12:43:18;100199.16;;;19.76;76.02
54194;BME280;40102;50.906;6.972;2023-07-31T12:45:44;100199.72;;;19.80;76.63
54194;BME280;40102;50.906;6.972;2023-07-31T12:48:09;100205.19;;;19.88;75.87
54194;BME280;40102;50.906;6.972;2023-07-31T12:50:34;100221.41;;;19.80;75.84
54194;BME280;40102;50.906;6.972;2023-07-31T12:53:07;100212.03;;;19.74;76.26
54194;BME280;40102;50.906;6.972;2023-07-31T12:55:43;100188.56;;;19.65;76.37
54194;BME280;40102;50.906;6.972;2023-07-31T12:58:09;100194.38;;;19.70;76.43
54194;BME280;40102;50.906;6.972;2023-07-31T13:00:34;100203.22;;;19.72;76.70